Time;durP1;ratioP1;P1;durP2;ratioP2;P2;SDS_P1;SDS_P2;PMS_P1;PMS_P2;Temp;Humidity;BMP_temperature;BMP_pressure;BME280_temperature;BME280_humidity;BME280_pressure;Samples;Min_cycle;Max_cycle;Signal;HPM_P1;HPM_P2
2022/06/30 00:00:08;;;;;;;7.10;2.50;;;;;;;18.09;99.30;98462.28;4892228;29;20511;-88
2022/06/30 00:02:39;;;;;;;2.97;2.00;;;;;;;18.11;99.71;98471.63;4905530;29;20069;-86
2022/06/30 00:05:05;;;;;;;3.05;2.10;;;;;;;18.15;99.83;98469.22;4888259;29;20040;-87
2022/06/30 00:07:31;;;;;;;2.80;2.25;;;;;;;18.16;100.00;98468.16;4873036;29;20037;-85
2022/06/30 00:09:58;;;;;;;2.38;2.10;;;;;;;18.15;100.00;98453.28;4891706;29;20039;-88
2022/06/30 00:12:24;;;;;;;3.40;2.42;;;;;;;18.16;99.94;98470.81;4871170;29;20049;-87
2022/06/30 00:14:49;;;;;;;3.25;1.90;;;;;;;18.07;100.00;98461.75;4905100;29;20025;-86
2022/06/30 00:17:15;;;;;;;2.88;2.00;;;;;;;18.11;100.00;98466.28;4905397;29;20120;-89
2022/06/30 00:19:41;;;;;;;3.28;2.30;;;;;;;18.01;100.00;98462.75;4889897;29;20124;-89
2022/06/30 00:22:07;;;;;;;4.40;2.00;;;;;;;17.99;100.00;98465.66;4908010;29;20024;-86
2022/06/30 00:24:34;;;;;;;5.68;2.38;;;;;;;17.92;100.00;98459.78;4890638;29;20538;-86
2022/06/30 00:27:00;;;;;;;3.03;2.17;;;;;;;18.00;100.00;98451.31;4888048;29;20036;-86
2022/06/30 00:29:25;;;;;;;2.85;2.08;;;;;;;18.02;100.00;98459.06;4904910;29;20032;-86
2022/06/30 00:31:51;;;;;;;4.13;2.17;;;;;;;18.04;100.00;98462.28;4888219;29;20107;-88
2022/06/30 00:34:17;;;;;;;3.97;2.65;;;;;;;18.00;100.00;98443.38;4888250;29;20107;-86
2022/06/30 00:36:43;;;;;;;3.72;2.45;;;;;;;18.01;100.00;98458.22;4888539;29;20028;-86
2022/06/30 00:39:10;;;;;;;3.25;2.17;;;;;;;18.01;100.00;98447.63;4907582;29;20060;-85
2022/06/30 00:41:45;;;;;;;4.45;2.55;;;;;;;18.01;100.00;98439.66;4891896;29;20036;-88
2022/06/30 00:44:12;;;;;;;4.95;2.35;;;;;;;18.06;100.00;98450.31;4907927;29;20553;-85
2022/06/30 00:46:39;;;;;;;3.45;2.10;;;;;;;17.98;100.00;98445.47;4877746;29;20035;-86
2022/06/30 00:49:06;;;;;;;6.10;2.28;;;;;;;18.00;100.00;98430.09;4893495;29;20040;-86
2022/06/30 00:51:31;;;;;;;3.55;2.25;;;;;;;18.06;100.00;98437.03;4908922;29;20380;-85
2022/06/30 00:54:00;;;;;;;3.88;2.20;;;;;;;18.09;100.00;98439.19;4890335;29;20025;-88
2022/06/30 00:56:27;;;;;;;4.50;2.10;;;;;;;18.03;100.00;98429.59;4908848;29;20043;-86
2022/06/30 00:58:57;;;;;;;3.35;2.03;;;;;;;18.08;100.00;98436.78;4893697;29;20035;-85
2022/06/30 01:01:24;;;;;;;4.07;2.15;;;;;;;18.02;100.00;98435.97;4895806;29;20039;-85
2022/06/30 01:03:51;;;;;;;2.90;2.20;;;;;;;17.98;100.00;98430.34;4911604;29;20071;-86
2022/06/30 01:06:17;;;;;;;3.20;2.45;;;;;;;17.72;100.00;98424.13;4909679;29;20060;-87
2022/06/30 01:08:43;;;;;;;2.97;2.35;;;;;;;17.80;100.00;98442.19;4909577;29;20379;-88
2022/06/30 01:13:53;;;;;;;4.28;2.50;;;;;;;17.63;100.00;98438.91;4907001;29;20075;-85
2022/06/30 01:16:21;;;;;;;3.17;2.42;;;;;;;17.56;100.00;98442.59;4908858;29;20379;-88
2022/06/30 01:18:47;;;;;;;2.80;2.17;;;;;;;17.48;100.00;98439.59;4893688;29;20469;-87
2022/06/30 01:21:13;;;;;;;3.22;2.30;;;;;;;17.39;100.00;98437.44;4914022;29;20167;-87
2022/06/30 01:23:38;;;;;;;3.80;2.65;;;;;;;17.31;100.00;98431.81;4909642;29;20394;-88
2022/06/30 01:26:04;;;;;;;4.65;2.55;;;;;;;17.23;100.00;98433.06;4895667;29;20039;-90
2022/06/30 01:28:29;;;;;;;3.65;2.55;;;;;;;17.12;100.00;98435.63;4893936;29;20028;-88
2022/06/30 01:30:56;;;;;;;3.45;2.22;;;;;;;17.10;100.00;98428.97;4894247;29;20047;-89
2022/06/30 01:33:22;;;;;;;4.25;2.70;;;;;;;16.99;100.00;98434.19;4908012;29;20164;-88
2022/06/30 01:35:48;;;;;;;2.83;2.40;;;;;;;16.97;100.00;98425.66;4913031;29;20060;-86
2022/06/30 01:38:15;;;;;;;4.93;2.47;;;;;;;17.04;100.00;98429.97;4891222;29;20032;-88
2022/06/30 01:40:40;;;;;;;5.03;3.20;;;;;;;17.11;100.00;98439.31;4899658;29;20040;-88
2022/06/30 01:43:06;;;;;;;3.67;2.55;;;;;;;17.17;100.00;98448.13;4903845;29;20044;-87
2022/06/30 01:45:33;;;;;;;3.00;2.45;;;;;;;17.19;100.00;98442.56;4891900;29;20039;-86
2022/06/30 01:47:59;;;;;;;3.15;2.60;;;;;;;17.26;100.00;98451.91;4873709;29;20603;-87
2022/06/30 01:50:29;;;;;;;6.68;3.03;;;;;;;17.27;100.00;98442.88;4897317;29;20036;-89
2022/06/30 01:52:55;;;;;;;4.25;2.97;;;;;;;17.26;100.00;98441.28;4892479;29;20032;-86
2022/06/30 01:55:21;;;;;;;3.55;2.70;;;;;;;17.25;100.00;98444.22;4896261;29;20032;-87
2022/06/30 01:57:48;;;;;;;4.28;3.20;;;;;;;17.23;100.00;98444.47;4893320;29;20039;-88
2022/06/30 02:00:16;;;;;;;4.32;2.88;;;;;;;17.22;100.00;98442.84;4893394;29;20040;-87
2022/06/30 02:02:42;;;;;;;4.93;3.00;;;;;;;17.17;100.00;98437.53;4906797;29;20550;-87
2022/06/30 02:05:09;;;;;;;4.05;2.58;;;;;;;17.20;100.00;98437.00;4891204;29;20092;-89
2022/06/30 02:07:36;;;;;;;4.82;2.88;;;;;;;17.15;100.00;98431.66;4889163;29;20036;-89
2022/06/30 02:10:10;;;;;;;4.60;2.85;;;;;;;17.17;100.00;98442.00;4912091;29;20395;-86
2022/06/30 02:12:45;;;;;;;3.55;2.90;;;;;;;17.07;100.00;98440.88;4904958;29;20513;-88
2022/06/30 02:15:28;;;;;;;4.55;3.05;;;;;;;17.12;100.00;98448.09;4911424;29;20025;-87
2022/06/30 02:17:54;;;;;;;3.40;2.60;;;;;;;16.99;100.00;98452.75;4908466;29;20036;-88
2022/06/30 02:20:23;;;;;;;4.45;2.70;;;;;;;17.02;100.00;98469.19;4907988;29;20149;-88
2022/06/30 02:22:52;;;;;;;4.78;2.80;;;;;;;17.07;100.00;98471.88;4906934;29;20083;-87
2022/06/30 02:25:17;;;;;;;5.72;3.50;;;;;;;17.06;100.00;98464.97;4891669;29;20043;-88
2022/06/30 02:27:43;;;;;;;4.47;3.35;;;;;;;17.03;100.00;98463.66;4890970;29;20062;-87
2022/06/30 02:30:09;;;;;;;4.68;3.60;;;;;;;17.06;100.00;98463.16;4911498;29;20493;-87
2022/06/30 02:32:35;;;;;;;6.18;3.33;;;;;;;17.12;100.00;98464.00;4888582;29;20403;-88
2022/06/30 02:35:01;;;;;;;4.90;3.80;;;;;;;17.08;100.00;98445.13;4906385;29;20024;-86
2022/06/30 02:37:27;;;;;;;3.75;3.30;;;;;;;17.13;100.00;98444.38;4911467;29;20031;-89
2022/06/30 02:39:53;;;;;;;4.80;3.30;;;;;;;17.12;100.00;98440.13;4912214;29;20032;-87
2022/06/30 02:42:19;;;;;;;5.32;4.35;;;;;;;17.00;100.00;98429.69;4908738;29;20482;-88
2022/06/30 02:44:44;;;;;;;7.88;4.95;;;;;;;16.98;100.00;98451.16;4906088;29;20032;-87
2022/06/30 02:47:10;;;;;;;6.88;5.03;;;;;;;16.96;100.00;98429.34;4888071;29;20031;-89
2022/06/30 02:49:37;;;;;;;10.95;4.85;;;;;;;16.84;100.00;98432.16;4910676;29;20036;-90
2022/06/30 02:52:03;;;;;;;8.45;5.63;;;;;;;16.59;100.00;98432.72;4889581;29;20036;-87
2022/06/30 02:54:28;;;;;;;7.32;5.22;;;;;;;16.72;100.00;98431.50;4910063;29;20119;-88
2022/06/30 02:56:54;;;;;;;8.55;4.45;;;;;;;16.81;100.00;98426.56;4907858;29;20112;-88
2022/06/30 02:59:19;;;;;;;9.40;5.18;;;;;;;16.68;100.00;98422.47;4910737;29;20025;-86
2022/06/30 03:01:45;;;;;;;10.73;5.70;;;;;;;16.44;100.00;98428.06;4906755;29;20535;-86
2022/06/30 03:04:11;;;;;;;10.90;6.97;;;;;;;16.37;100.00;98425.59;4907080;29;20080;-86
2022/06/30 03:06:36;;;;;;;12.90;7.65;;;;;;;16.22;100.00;98420.09;4905229;29;20510;-86
2022/06/30 03:09:03;;;;;;;11.55;7.10;;;;;;;16.17;100.00;98414.75;4886987;29;20092;-86
2022/06/30 03:11:29;;;;;;;13.75;7.60;;;;;;;15.99;100.00;98409.50;4890304;29;20107;-88
2022/06/30 03:13:55;;;;;;;10.57;7.30;;;;;;;16.01;100.00;98409.28;4906744;29;20136;-86
2022/06/30 03:16:20;;;;;;;11.32;7.55;;;;;;;15.84;100.00;98415.38;4897300;29;20120;-86
2022/06/30 03:18:46;;;;;;;11.10;8.18;;;;;;;15.79;100.00;98407.38;4890074;29;20028;-88
2022/06/30 03:21:13;;;;;;;12.75;7.28;;;;;;;16.13;100.00;98420.56;4889945;29;20071;-86
2022/06/30 03:23:38;;;;;;;11.10;7.43;;;;;;;16.10;100.00;98422.88;4902205;29;20044;-84
2022/06/30 03:26:05;;;;;;;10.60;6.75;;;;;;;16.19;100.00;98436.50;4908320;29;20368;-84
2022/06/30 03:28:31;;;;;;;10.65;6.63;;;;;;;16.21;100.00;98447.63;4891684;29;20528;-85
2022/06/30 03:30:58;;;;;;;19.38;7.43;;;;;;;16.18;100.00;98456.06;4909710;29;20491;-86
2022/06/30 03:33:24;;;;;;;9.75;6.47;;;;;;;16.45;100.00;98457.97;4907674;29;20444;-86
2022/06/30 03:35:50;;;;;;;8.50;6.30;;;;;;;16.40;100.00;98454.22;4920572;29;20047;-86
2022/06/30 03:38:16;;;;;;;8.40;5.65;;;;;;;16.49;100.00;98441.34;4902096;29;20032;-86
2022/06/30 03:40:42;;;;;;;8.88;6.80;;;;;;;16.06;100.00;98438.44;4912159;29;20039;-86
2022/06/30 03:43:08;;;;;;;8.30;5.97;;;;;;;16.39;100.00;98442.03;4892479;29;20052;-88
2022/06/30 03:45:34;;;;;;;8.13;6.13;;;;;;;16.48;100.00;98444.22;4904286;29;20047;-87
2022/06/30 03:48:05;;;;;;;9.40;6.35;;;;;;;16.25;100.00;98448.75;4874984;29;20027;-87
2022/06/30 03:50:34;;;;;;;9.45;7.05;;;;;;;16.18;100.00;98440.19;4889451;29;20040;-85
2022/06/30 03:53:01;;;;;;;7.90;5.50;;;;;;;16.32;100.00;98456.50;4906597;29;20032;-86
2022/06/30 03:55:26;;;;;;;9.85;6.05;;;;;;;16.23;100.00;98448.19;4887893;29;20071;-86
2022/06/30 03:57:53;;;;;;;7.90;5.90;;;;;;;16.19;100.00;98450.50;4909479;29;20102;-85
2022/06/30 04:00:19;;;;;;;18.70;6.65;;;;;;;16.18;100.00;98456.84;4906426;29;20383;-85
2022/06/30 04:02:45;;;;;;;8.68;5.38;;;;;;;16.18;100.00;98451.56;4875093;29;20042;-86
2022/06/30 04:05:10;;;;;;;8.50;6.03;;;;;;;16.28;100.00;98451.69;4880191;29;20115;-86
2022/06/30 04:07:41;;;;;;;11.45;6.93;;;;;;;16.36;100.00;98455.78;4890378;29;20044;-85
2022/06/30 04:10:08;;;;;;;8.90;5.28;;;;;;;16.47;100.00;98463.81;4907436;29;20037;-88
2022/06/30 04:12:34;;;;;;;9.07;5.15;;;;;;;16.45;100.00;98460.63;4890746;29;20067;-89
2022/06/30 04:15:00;;;;;;;8.05;5.80;;;;;;;16.47;100.00;98459.34;4888466;29;20463;-89
2022/06/30 04:17:26;;;;;;;10.10;5.70;;;;;;;16.48;100.00;98465.41;4910357;29;20038;-86
2022/06/30 04:19:51;;;;;;;6.38;5.22;;;;;;;16.59;100.00;98461.84;4889418;29;20193;-88
2022/06/30 04:22:17;;;;;;;7.22;5.90;;;;;;;16.19;100.00;98479.63;4888302;29;20032;-86
2022/06/30 04:24:42;;;;;;;9.63;6.60;;;;;;;16.24;100.00;98466.50;4890969;29;20080;-87
2022/06/30 04:27:08;;;;;;;9.45;6.75;;;;;;;16.24;100.00;98470.97;4893757;29;20032;-87
2022/06/30 04:29:33;;;;;;;6.90;5.95;;;;;;;16.66;100.00;98478.34;4905154;29;20024;-86
2022/06/30 04:34:43;;;;;;;9.02;5.90;;;;;;;16.67;100.00;98472.00;4902451;29;20032;-86
2022/06/30 04:37:08;;;;;;;6.85;5.78;;;;;;;16.79;100.00;98479.81;4893750;29;20406;-87
2022/06/30 04:39:34;;;;;;;10.75;6.35;;;;;;;16.66;100.00;98488.16;4889816;29;20032;-86
2022/06/30 04:41:59;;;;;;;7.90;5.45;;;;;;;16.83;100.00;98482.75;4904996;29;20452;-87
2022/06/30 04:44:25;;;;;;;9.45;5.75;;;;;;;16.83;100.00;98477.47;4888266;29;20028;-85
2022/06/30 04:46:51;;;;;;;8.73;6.72;;;;;;;16.87;100.00;98483.84;4889362;29;20074;-86
2022/06/30 04:49:16;;;;;;;8.80;6.72;;;;;;;16.85;100.00;98485.97;4907413;29;20040;-87
2022/06/30 04:51:42;;;;;;;7.63;5.97;;;;;;;16.97;100.00;98494.59;4909040;29;20111;-87
2022/06/30 04:54:07;;;;;;;8.68;6.90;;;;;;;16.96;100.00;98487.69;4890539;29;20027;-85
2022/06/30 04:56:33;;;;;;;8.35;5.82;;;;;;;17.19;100.00;98490.28;4890314;29;20087;-86
2022/06/30 04:58:59;;;;;;;9.05;6.10;;;;;;;17.32;100.00;98473.97;4902581;29;20056;-85
2022/06/30 05:01:25;;;;;;;11.85;7.20;;;;;;;17.09;100.00;98491.00;4910599;29;20028;-88
2022/06/30 05:03:50;;;;;;;8.45;6.60;;;;;;;16.95;100.00;98482.63;4904749;29;20110;-87
2022/06/30 05:06:16;;;;;;;13.75;7.55;;;;;;;17.11;100.00;98484.41;4906512;29;20126;-86
2022/06/30 05:08:42;;;;;;;8.18;6.20;;;;;;;17.17;100.00;98479.94;4892211;29;20028;-86
2022/06/30 05:11:08;;;;;;;8.90;7.55;;;;;;;17.14;100.00;98472.50;4871322;29;20408;-89
2022/06/30 05:13:34;;;;;;;9.25;6.78;;;;;;;17.44;100.00;98465.84;4886213;29;20061;-87
2022/06/30 05:15:59;;;;;;;12.57;7.80;;;;;;;17.37;100.00;98462.59;4909782;29;20483;-87
2022/06/30 05:18:26;;;;;;;13.02;8.82;;;;;;;17.38;100.00;98467.63;4910998;29;20036;-88
2022/06/30 05:20:52;;;;;;;14.77;8.38;;;;;;;17.55;100.00;98472.00;4894537;29;20507;-86
2022/06/30 05:23:19;;;;;;;12.05;9.27;;;;;;;17.42;100.00;98481.22;4891499;29;20056;-87
2022/06/30 05:28:29;;;;;;;15.73;9.73;;;;;;;17.54;100.00;98475.72;4914584;29;20039;-85
2022/06/30 05:30:57;;;;;;;14.27;10.90;;;;;;;17.46;100.00;98474.34;4907143;29;20398;-85
2022/06/30 05:33:23;;;;;;;21.50;13.35;;;;;;;17.27;100.00;98487.97;4877917;29;20116;-87
2022/06/30 05:35:50;;;;;;;20.52;12.02;;;;;;;17.24;100.00;98477.88;4906786;29;20063;-84
2022/06/30 05:38:17;;;;;;;20.73;13.32;;;;;;;17.05;100.00;98474.00;4908810;29;20047;-85
2022/06/30 05:40:45;;;;;;;22.90;14.15;;;;;;;17.21;100.00;98482.91;4907977;29;20096;-84
2022/06/30 05:43:13;;;;;;;23.73;15.00;;;;;;;17.41;100.00;98474.31;4907497;29;20048;-85
2022/06/30 05:45:40;;;;;;;21.27;14.60;;;;;;;17.68;100.00;98474.25;4902204;29;20032;-84
2022/06/30 05:48:06;;;;;;;24.65;16.52;;;;;;;18.05;100.00;98491.22;4909022;29;20047;-85
2022/06/30 05:50:32;;;;;;;22.98;15.70;;;;;;;18.30;100.00;98487.09;4882231;29;20036;-84
2022/06/30 05:52:58;;;;;;;24.75;16.95;;;;;;;18.39;100.00;98493.50;4892539;29;20110;-84
2022/06/30 05:55:24;;;;;;;25.80;15.98;;;;;;;18.69;100.00;98481.41;4905942;29;20119;-84
2022/06/30 05:57:54;;;;;;;17.77;12.05;;;;;;;18.90;100.00;98480.63;4893473;29;20044;-86
2022/06/30 06:00:20;;;;;;;21.67;13.55;;;;;;;18.92;100.00;98476.66;4889385;29;20047;-83
2022/06/30 06:02:46;;;;;;;28.25;17.15;;;;;;;18.92;100.00;98475.84;4893608;29;20065;-85
2022/06/30 06:05:13;;;;;;;25.83;17.02;;;;;;;18.72;100.00;98477.41;4911939;29;20043;-85
2022/06/30 06:07:39;;;;;;;29.20;17.08;;;;;;;18.69;100.00;98476.09;4909720;29;20036;-83
2022/06/30 06:10:05;;;;;;;25.60;17.60;;;;;;;18.24;100.00;98482.81;4906533;29;20398;-85
2022/06/30 06:12:31;;;;;;;24.55;16.77;;;;;;;18.30;100.00;98486.28;4906245;29;20044;-83
2022/06/30 06:14:57;;;;;;;25.17;17.60;;;;;;;17.69;100.00;98489.09;4912118;29;20032;-85
2022/06/30 06:17:23;;;;;;;25.30;14.57;;;;;;;17.39;100.00;98484.38;4910526;29;20483;-85
2022/06/30 06:19:49;;;;;;;22.60;16.00;;;;;;;17.31;100.00;98487.50;4909702;29;20035;-84
2022/06/30 06:22:15;;;;;;;21.83;13.77;;;;;;;17.37;100.00;98486.47;4898277;29;20066;-85
2022/06/30 06:24:40;;;;;;;20.10;13.60;;;;;;;17.04;100.00;98488.31;4909947;29;20123;-84
2022/06/30 06:27:06;;;;;;;25.30;15.93;;;;;;;17.10;100.00;98496.06;4879334;29;20036;-85
2022/06/30 06:29:32;;;;;;;24.65;16.25;;;;;;;17.32;100.00;98476.63;4912220;29;20028;-84
2022/06/30 06:31:57;;;;;;;25.70;16.25;;;;;;;17.61;100.00;98486.13;4909944;29;20037;-84
2022/06/30 06:34:23;;;;;;;25.83;15.77;;;;;;;17.54;100.00;98475.72;4871270;29;20107;-83
2022/06/30 06:36:48;;;;;;;25.73;15.88;;;;;;;17.49;100.00;98481.81;4908288;29;20372;-85
2022/06/30 06:39:14;;;;;;;35.72;18.83;;;;;;;17.61;100.00;98481.63;4872302;29;20032;-84
2022/06/30 06:41:40;;;;;;;44.55;24.58;;;;;;;17.28;100.00;98470.22;4875403;29;20040;-83
2022/06/30 06:44:06;;;;;;;36.83;20.63;;;;;;;17.39;100.00;98489.69;4912183;29;20032;-85
2022/06/30 06:46:32;;;;;;;33.35;19.73;;;;;;;17.50;100.00;98494.03;4906571;29;20032;-85
2022/06/30 06:49:00;;;;;;;28.63;17.17;;;;;;;17.37;100.00;98483.81;4894399;29;20476;-85
2022/06/30 06:51:27;;;;;;;31.42;18.35;;;;;;;17.37;100.00;98494.44;4888786;29;20119;-85
2022/06/30 06:53:53;;;;;;;32.92;18.80;;;;;;;17.55;100.00;98496.72;4899779;29;20032;-85
2022/06/30 06:56:19;;;;;;;29.42;16.42;;;;;;;17.69;100.00;98494.41;4916730;29;20571;-88
2022/06/30 06:58:45;;;;;;;15.55;9.75;;;;;;;17.46;100.00;98494.78;4907845;29;20036;-84
2022/06/30 07:01:10;;;;;;;15.27;8.43;;;;;;;17.80;100.00;98500.59;4873940;29;20140;-85
2022/06/30 07:03:37;;;;;;;13.23;7.40;;;;;;;17.83;100.00;98488.69;4886347;29;20389;-84
2022/06/30 07:06:03;;;;;;;14.50;8.30;;;;;;;17.83;100.00;98499.28;4887599;29;20032;-88
2022/06/30 07:08:28;;;;;;;12.43;7.18;;;;;;;17.77;100.00;98497.63;4901631;29;20040;-84
2022/06/30 07:10:56;;;;;;;9.88;6.78;;;;;;;18.17;100.00;98500.84;4901666;29;20088;-84
2022/06/30 07:13:23;;;;;;;9.05;6.00;;;;;;;18.70;100.00;98492.81;4870087;29;20092;-86
2022/06/30 07:15:49;;;;;;;7.82;5.03;;;;;;;18.97;100.00;98507.78;4897985;29;20495;-85
2022/06/30 07:18:15;;;;;;;5.70;4.05;;;;;;;19.22;100.00;98500.94;4882139;29;20036;-86
2022/06/30 07:20:41;;;;;;;6.72;3.10;;;;;;;19.05;100.00;98512.63;4876726;29;20032;-84
2022/06/30 07:23:06;;;;;;;6.15;3.00;;;;;;;18.60;100.00;98503.44;4893450;29;20036;-86
2022/06/30 07:25:41;;;;;;;6.65;3.00;;;;;;;18.77;100.00;98506.69;4889976;29;20471;-87
2022/06/30 07:28:32;;;;;;;6.55;3.22;;;;;;;19.10;100.00;98509.16;4887529;29;20043;-84
2022/06/30 07:30:57;;;;;;;7.28;3.22;;;;;;;19.57;100.00;98517.16;4885947;29;20139;-88
2022/06/30 07:33:23;;;;;;;6.45;3.10;;;;;;;20.09;100.00;98501.94;4900596;29;20039;-83
2022/06/30 07:35:49;;;;;;;6.97;3.70;;;;;;;20.69;100.00;98504.66;4899367;29;20383;-86
2022/06/30 07:38:14;;;;;;;6.05;2.97;;;;;;;20.19;100.00;98509.13;4882772;29;20083;-87
2022/06/30 07:40:40;;;;;;;6.07;2.92;;;;;;;20.17;98.12;98500.59;4899215;29;20568;-85
2022/06/30 07:43:05;;;;;;;7.07;2.92;;;;;;;20.68;98.22;98508.41;4882655;29;20039;-85
2022/06/30 07:45:32;;;;;;;5.22;2.97;;;;;;;20.45;98.35;98509.03;4899858;29;20173;-87
2022/06/30 07:47:57;;;;;;;5.90;3.15;;;;;;;20.78;97.03;98510.22;4882162;29;20123;-86
2022/06/30 07:50:23;;;;;;;4.78;2.95;;;;;;;21.01;95.14;98496.50;4899476;29;20046;-86
2022/06/30 07:52:49;;;;;;;9.50;2.88;;;;;;;20.48;93.67;98497.84;4899884;29;20123;-87
2022/06/30 07:55:18;;;;;;;3.53;2.25;;;;;;;20.05;94.83;98501.72;4884418;29;20491;-88
2022/06/30 07:57:48;;;;;;;5.15;2.92;;;;;;;20.28;94.72;98499.50;4888706;29;20036;-88
2022/06/30 08:00:15;;;;;;;4.75;2.70;;;;;;;20.54;94.47;98488.72;4904057;29;20036;-89
2022/06/30 08:02:41;;;;;;;3.80;2.60;;;;;;;20.90;93.81;98514.44;4885554;29;20031;-88
2022/06/30 08:05:07;;;;;;;5.05;2.45;;;;;;;21.11;93.68;98493.78;4896901;29;20039;-85
2022/06/30 08:07:34;;;;;;;3.55;2.45;;;;;;;21.41;91.51;98499.94;4906840;29;20043;-84
2022/06/30 08:09:59;;;;;;;3.58;2.72;;;;;;;21.89;91.93;98490.47;4917388;29;20448;-87
2022/06/30 08:12:25;;;;;;;7.60;3.13;;;;;;;21.60;89.62;98500.06;4917029;29;20056;-85
2022/06/30 08:14:51;;;;;;;7.32;2.60;;;;;;;21.43;89.61;98492.47;4900468;29;20024;-89
2022/06/30 08:17:16;;;;;;;6.13;2.97;;;;;;;21.00;89.97;98492.22;4900284;29;20051;-87
2022/06/30 08:19:42;;;;;;;6.85;2.50;;;;;;;21.44;89.83;98491.41;4917023;29;20498;-85
2022/06/30 08:22:08;;;;;;;5.18;2.65;;;;;;;20.65;91.32;98498.28;4901543;29;20036;-87
2022/06/30 08:24:34;;;;;;;7.65;2.70;;;;;;;21.06;90.40;98504.50;4917289;29;20048;-88
2022/06/30 08:27:02;;;;;;;5.28;2.65;;;;;;;21.02;89.95;98508.75;4910700;29;20360;-89
2022/06/30 08:29:34;;;;;;;5.65;2.50;;;;;;;20.29;88.79;98516.28;4879112;29;20044;-88
2022/06/30 08:32:01;;;;;;;4.80;2.33;;;;;;;20.50;89.59;98517.00;4892058;29;20039;-88
2022/06/30 08:34:27;;;;;;;4.70;2.10;;;;;;;20.75;90.13;98507.28;4870643;29;20036;-88
2022/06/30 08:36:54;;;;;;;4.45;2.42;;;;;;;20.38;89.37;98510.13;4900508;29;20040;-89
2022/06/30 08:42:06;;;;;;;5.35;2.25;;;;;;;20.64;90.33;98507.34;4905283;29;20044;-86
2022/06/30 08:44:33;;;;;;;3.63;2.35;;;;;;;21.12;89.93;98509.50;4889499;29;20029;-88
2022/06/30 08:47:00;;;;;;;4.10;2.22;;;;;;;21.11;87.27;98507.13;4896594;29;20035;-90
2022/06/30 08:49:26;;;;;;;4.97;2.33;;;;;;;21.20;86.71;98510.78;4881158;29;20036;-90
2022/06/30 08:51:55;;;;;;;4.03;2.20;;;;;;;21.78;85.43;98500.47;4891290;29;20044;-87
2022/06/30 08:54:22;;;;;;;5.10;2.25;;;;;;;22.18;84.48;98508.34;4883609;29;20032;-89
2022/06/30 08:56:50;;;;;;;4.35;2.20;;;;;;;22.30;82.40;98500.72;4874456;29;20037;-88
2022/06/30 08:59:16;;;;;;;4.07;2.45;;;;;;;22.66;81.73;98497.63;4886830;29;20111;-89
2022/06/30 09:01:42;;;;;;;3.65;2.25;;;;;;;22.50;81.53;98501.59;4896967;29;20036;-88
2022/06/30 09:04:11;;;;;;;4.05;2.65;;;;;;;22.81;82.49;98509.22;4924404;29;20028;-90
2022/06/30 09:06:36;;;;;;;6.32;2.78;;;;;;;22.90;80.31;98510.16;4897180;29;20508;-90
2022/06/30 09:09:03;;;;;;;4.47;2.90;;;;;;;22.80;80.03;98502.28;4882698;29;20040;-89
2022/06/30 09:11:49;;;;;;;5.18;2.92;;;;;;;22.83;77.61;98507.03;4883333;29;20029;-89
2022/06/30 09:14:36;;;;;;;5.55;2.97;;;;;;;22.73;76.66;98505.31;4872789;29;20060;-90
2022/06/30 09:17:05;;;;;;;5.45;2.60;;;;;;;22.55;78.28;98506.84;4891995;29;20390;-88
2022/06/30 09:19:31;;;;;;;4.82;2.63;;;;;;;22.15;77.03;98509.72;4906321;29;20131;-88
2022/06/30 09:22:08;;;;;;;3.17;2.88;;;;;;;22.50;77.87;98509.59;4906751;29;20036;-87
2022/06/30 09:24:35;;;;;;;3.92;2.83;;;;;;;21.91;73.80;98505.16;4910340;29;20036;-88
2022/06/30 09:27:14;;;;;;;6.03;2.72;;;;;;;22.16;76.72;98508.63;4880676;29;20040;-86
2022/06/30 09:29:54;;;;;;;3.33;2.65;;;;;;;22.39;78.06;98508.91;4889733;29;20032;-86
2022/06/30 09:32:21;;;;;;;5.72;2.40;;;;;;;22.22;76.46;98506.72;4887988;29;20043;-88
2022/06/30 09:34:49;;;;;;;3.13;2.80;;;;;;;22.37;75.40;98511.06;4903939;29;20036;-87
2022/06/30 09:37:25;;;;;;;2.95;2.53;;;;;;;22.73;74.34;98512.53;4874719;29;20067;-88
2022/06/30 09:39:54;;;;;;;5.03;2.83;;;;;;;22.32;74.62;98513.81;4912811;29;20099;-87
2022/06/30 09:42:43;;;;;;;3.53;2.42;;;;;;;23.70;76.91;98512.16;4894522;29;20129;-85
2022/06/30 09:45:11;;;;;;;3.03;2.72;;;;;;;24.05;74.02;98517.19;4906181;29;20119;-89
2022/06/30 09:47:49;;;;;;;2.60;2.40;;;;;;;24.07;74.00;98526.53;4915261;29;20376;-87
2022/06/30 09:50:15;;;;;;;3.60;2.70;;;;;;;23.73;72.48;98529.53;4897513;29;20028;-86
2022/06/30 09:52:41;;;;;;;4.60;2.88;;;;;;;22.68;73.56;98522.22;4888016;29;20115;-88
2022/06/30 09:55:12;;;;;;;3.00;2.42;;;;;;;23.93;73.71;98517.63;4910060;29;20039;-86
2022/06/30 09:57:45;;;;;;;10.98;3.20;;;;;;;23.61;71.26;98520.06;4908526;29;20443;-87
2022/06/30 10:00:13;;;;;;;8.35;3.25;;;;;;;23.40;72.76;98514.28;4892509;29;20037;-87
2022/06/30 10:02:42;;;;;;;2.58;2.38;;;;;;;23.92;71.80;98521.41;4889393;29;20384;-87
2022/06/30 10:05:10;;;;;;;3.92;2.55;;;;;;;24.19;70.29;98520.66;4910619;29;20044;-89
2022/06/30 10:07:37;;;;;;;3.38;2.50;;;;;;;24.61;71.02;98520.66;4889723;29;20036;-88
2022/06/30 10:10:11;;;;;;;4.22;2.80;;;;;;;24.87;70.62;98525.50;4906396;29;20032;-87
2022/06/30 10:12:39;;;;;;;4.25;2.47;;;;;;;25.34;69.00;98522.53;4907361;29;20499;-88
2022/06/30 10:15:07;;;;;;;4.40;2.78;;;;;;;25.56;66.70;98525.56;4889674;29;20095;-88
2022/06/30 10:17:42;;;;;;;18.98;10.82;;;;;;;25.30;64.99;98520.78;4886220;29;20546;-87
2022/06/30 10:20:08;;;;;;;12.68;7.70;;;;;;;25.66;64.99;98526.09;4907759;29;20395;-87
2022/06/30 10:22:35;;;;;;;5.70;3.10;;;;;;;25.50;63.00;98520.31;4904251;29;20428;-87
2022/06/30 10:25:00;;;;;;;2.60;2.40;;;;;;;24.66;62.99;98525.91;4905905;29;20068;-88
2022/06/30 10:27:27;;;;;;;4.53;2.60;;;;;;;23.60;66.00;98526.50;4904985;29;20487;-88
2022/06/30 10:29:59;;;;;;;4.50;2.60;;;;;;;23.86;67.11;98525.28;4907295;29;20032;-86
2022/06/30 10:32:53;;;;;;;5.43;2.50;;;;;;;24.57;66.86;98535.78;4907447;29;20060;-86
2022/06/30 10:35:34;;;;;;;5.32;2.85;;;;;;;24.58;65.58;98528.50;4907200;29;20029;-85
2022/06/30 10:38:10;;;;;;;5.18;2.75;;;;;;;25.61;67.02;98536.19;4907837;29;20034;-85
2022/06/30 10:40:53;;;;;;;4.47;2.40;;;;;;;25.72;65.46;98532.13;4901503;29;20046;-87
2022/06/30 10:43:19;;;;;;;2.65;2.45;;;;;;;25.94;65.69;98533.19;4907334;29;20449;-85
2022/06/30 10:46:02;;;;;;;3.67;2.30;;;;;;;26.64;66.68;98517.28;4907688;29;20032;-85
2022/06/30 10:48:48;;;;;;;;;;;;;;;26.60;64.33;98524.41;4906570;29;20398;-85
2022/06/30 10:51:14;;;;;;;2.97;2.63;;;;;;;26.71;64.58;98524.09;4905646;29;19954;-86
2022/06/30 10:53:40;;;;;;;4.25;2.40;;;;;;;26.65;62.89;98518.88;4910830;29;20497;-88
2022/06/30 10:56:06;;;;;;;4.15;2.35;;;;;;;26.83;65.47;98507.34;4905981;29;20028;-86
2022/06/30 10:58:31;;;;;;;2.95;2.40;;;;;;;25.09;60.63;98510.50;4906746;29;20059;-87
2022/06/30 11:01:04;;;;;;;2.70;2.33;;;;;;;24.83;61.75;98523.72;4906742;29;20121;-88
2022/06/30 11:03:33;;;;;;;4.25;2.40;;;;;;;25.42;60.71;98523.72;4912254;29;20480;-86
2022/06/30 11:06:10;;;;;;;3.50;2.10;;;;;;;26.25;61.81;98523.53;4907045;29;20474;-85
2022/06/30 11:08:35;;;;;;;3.70;2.38;;;;;;;25.94;61.35;98517.03;4903778;29;20371;-89
2022/06/30 11:11:20;;;;;;;3.60;2.38;;;;;;;26.32;61.86;98524.66;4885959;29;20088;-87
2022/06/30 11:13:51;;;;;;;3.70;2.67;;;;;;;26.14;59.96;98520.28;4907425;29;20053;-87
2022/06/30 11:16:19;;;;;;;4.10;2.30;;;;;;;25.18;60.45;98524.81;4902406;29;20047;-87
2022/06/30 11:18:46;;;;;;;7.25;2.90;;;;;;;24.13;63.51;98534.47;4904958;29;20119;-86
2022/06/30 11:21:12;;;;;;;5.00;2.75;;;;;;;22.63;67.42;98535.66;4908170;29;20039;-85
2022/06/30 11:23:44;;;;;;;5.07;2.78;;;;;;;23.45;67.69;98537.47;4908204;29;20043;-88
2022/06/30 11:29:00;;;;;;;5.28;2.85;;;;;;;23.03;67.86;98538.06;4910520;29;20423;-85
2022/06/30 11:31:35;;;;;;;2.83;2.50;;;;;;;22.92;67.52;98541.97;4886999;29;20101;-87
2022/06/30 11:34:14;;;;;;;5.32;2.35;;;;;;;23.10;66.98;98537.69;4907838;29;20054;-86
2022/06/30 11:36:42;;;;;;;6.00;3.60;;;;;;;22.81;67.56;98538.66;4907670;29;20063;-87
2022/06/30 11:39:10;;;;;;;3.78;2.80;;;;;;;23.68;65.95;98533.09;4906101;29;20040;-87